KSIK

Details ICAO KSIK
Name SIKESTON MEM MUNI
Region United States
Timezone America/Chicago (UTC-5.0)
Plans Departing 2
Arriving 1
Stats Elevation 315 ft / 96 m (AMSL)
Location 36.898879° -89.561750°
Runways 1
Magnetic Variation 1.871° W
Sunrise 2018-05-27 10:44:00 UTC / 2018-05-27 05:44:00 Local
Sunset 2018-05-28 01:09:44 UTC / 2018-05-27 20:09:44 Local
Advertisement - Login to hide

Runways

ID Width Length Bearing (true) Bearing (mag) Surface Threshold Offset Overrun Length
02 100 ft / 30 m 5,510 ft / 1,680 m 23.88° 25.75° Asphalt 0 ft / 0 m 0 ft / 0 m
20 100 ft / 30 m 5,510 ft / 1,680 m 203.88° 205.75° Asphalt 0 ft / 0 m 0 ft / 0 m

Map

Weather


0- 5 10 15 20 25 30 35+ Temperature / ° C

Clouds and Precipitation
Forecast for 2018-05-27 18:00 UTC. Updated 3 hours ago

Ground ~20,000 ft ~40,000 ft Winds

METAR

KSIK 272015Z AUTO 28003KT 10SM CLR 34/20 A2987 RMK AO2

TAF

Not found

Frequencies

Recorded 119.17 MHz AWOS 3
Unicom 122.80 MHz CTAF/UNICOM
Warning: Do not use this data for real-world aviation or navigation. No guarantee of current accuracy is given.